Time;durP1;ratioP1;P1;durP2;ratioP2;P2;SDS_P1;SDS_P2;PMS_P1;PMS_P2;Temp;Humidity;BMP_temperature;BMP_pressure;BME280_temperature;BME280_humidity;BME280_pressure;Samples;Min_cycle;Max_cycle;Signal;HPM_P1;HPM_P2
2022/01/09 00:01:05;;;;;;;1.00;0.70;;;5.50;99.90;;;;;;5070741;28;20458;-70
2022/01/09 00:03:32;;;;;;;2.73;1.00;;;5.60;99.90;;;;;;5071433;28;20511;-70
2022/01/09 00:06:00;;;;;;;1.40;0.70;;;5.50;99.90;;;;;;5071550;28;20449;-70
2022/01/09 00:08:27;;;;;;;0.93;0.60;;;5.60;99.90;;;;;;5071425;28;20838;-70
2022/01/09 00:10:55;;;;;;;0.77;0.60;;;5.50;99.90;;;;;;5071169;28;21008;-70
2022/01/09 00:13:22;;;;;;;1.77;0.63;;;5.60;99.90;;;;;;5070649;28;20507;-71
2022/01/09 00:15:49;;;;;;;0.83;0.60;;;5.60;1.00;;;;;;5071110;28;20441;-71
2022/01/09 00:18:16;;;;;;;1.00;0.90;;;5.50;1.00;;;;;;5070839;28;20808;-71
2022/01/09 00:20:43;;;;;;;0.87;0.60;;;5.50;1.00;;;;;;5071242;28;20472;-71
2022/01/09 00:23:12;;;;;;;0.90;0.77;;;5.60;1.00;;;;;;5070540;28;20445;-71
2022/01/09 00:25:39;;;;;;;1.13;0.70;;;5.60;1.00;;;;;;5071510;28;20453;-71
2022/01/09 00:28:05;;;;;;;0.90;0.60;;;5.50;1.00;;;;;;5070454;28;20477;-71
2022/01/09 00:30:32;;;;;;;0.73;0.50;;;5.50;1.00;;;;;;5071153;28;20446;-70
2022/01/09 00:32:59;;;;;;;1.47;1.00;;;5.60;1.00;;;;;;5071156;28;20457;-71
2022/01/09 00:35:29;;;;;;;1.47;0.40;;;5.50;1.00;;;;;;5070243;28;20456;-72
2022/01/09 00:37:56;;;;;;;0.80;0.47;;;5.50;1.00;;;;;;5071093;28;20536;-72
2022/01/09 00:40:25;;;;;;;0.90;0.60;;;5.40;1.00;;;;;;5070264;28;20445;-72
2022/01/09 00:42:52;;;;;;;2.60;1.43;;;5.40;20.30;;;;;;5069569;28;20455;-70
2022/01/09 00:45:19;;;;;;;0.70;0.50;;;5.40;39.60;;;;;;5070073;28;20925;-72
2022/01/09 00:47:46;;;;;;;3.60;1.00;;;5.40;49.70;;;;;;5070415;28;20449;-72
2022/01/09 00:50:14;;;;;;;2.00;0.77;;;5.50;92.10;;;;;;5069814;28;20455;-72
2022/01/09 00:52:42;;;;;;;0.80;0.50;;;;;;;;;;5070400;28;20904;-75
2022/01/09 00:55:09;;;;;;;0.80;0.50;;;;;;;;;;5073747;28;20446;-76
2022/01/09 00:57:38;;;;;;;1.10;0.60;;;;;;;;;;5075138;28;20847;-76
2022/01/09 01:00:06;;;;;;;0.80;0.50;;;;;;;;;;5073579;28;20471;-74
2022/01/09 01:02:33;;;;;;;1.17;0.50;;;;;;;;;;5075228;28;20528;-73
2022/01/09 01:05:00;;;;;;;1.27;0.70;;;;;;;;;;5074732;28;20488;-75
2022/01/09 01:07:28;;;;;;;0.60;0.40;;;;;;;;;;5074401;28;20548;-75
2022/01/09 01:09:57;;;;;;;1.20;0.57;;;;;;;;;;5074768;28;20489;-74
2022/01/09 01:12:24;;;;;;;0.60;0.40;;;;;;;;;;5073925;28;20448;-74
2022/01/09 01:14:53;;;;;;;0.70;0.40;;;;;;;;;;5074603;28;20449;-76
2022/01/09 01:17:20;;;;;;;1.03;0.70;;;;;;;;;;5073422;28;20462;-75
2022/01/09 01:19:47;;;;;;;0.67;0.43;;;;;;;;;;5074138;28;20455;-74
2022/01/09 01:22:15;;;;;;;0.70;0.50;;;;;;;;;;5073869;28;20544;-75
2022/01/09 01:24:42;;;;;;;0.70;0.40;;;;;;;;;;5073542;28;20456;-71
2022/01/09 01:27:09;;;;;;;0.60;0.47;;;;;;;;;;5073158;28;20459;-71
2022/01/09 01:29:38;;;;;;;1.10;0.70;;;;;;;;;;5073683;28;20507;-72
2022/01/09 01:32:07;;;;;;;0.70;0.50;;;;;;;;;;5073415;28;20818;-71
2022/01/09 01:34:34;;;;;;;0.80;0.40;;;;;;;;;;5073383;28;20449;-72
2022/01/09 01:37:01;;;;;;;0.60;0.40;;;;;;;;;;5073577;28;20455;-74
2022/01/09 01:39:28;;;;;;;0.60;0.40;;;;;;;;;;5074175;28;20461;-72
2022/01/09 01:41:55;;;;;;;0.80;0.50;;;;;;;;;;5073771;28;20795;-73
2022/01/09 01:44:22;;;;;;;0.60;0.40;;;;;;;;;;5072847;28;20698;-73
2022/01/09 01:46:50;;;;;;;0.90;0.60;;;;;;;;;;5073957;28;20446;-74
2022/01/09 01:49:18;;;;;;;0.60;0.50;;;;;;;;;;5073104;28;20483;-72
2022/01/09 01:51:45;;;;;;;0.63;0.43;;;;;;;;;;5073491;28;20484;-73
2022/01/09 01:54:13;;;;;;;1.10;0.40;;;;;;;;;;5073013;28;20441;-73
2022/01/09 01:56:41;;;;;;;1.10;0.50;;;;;;;;;;5073457;28;20481;-72
2022/01/09 01:59:08;;;;;;;0.60;0.40;;;;;;;;;;5064612;28;20454;-72
2022/01/09 02:01:36;;;;;;;0.60;0.40;;;;;;;;;;5073614;28;20468;-72
2022/01/09 02:04:04;;;;;;;2.13;0.77;;;;;;;;;;5072645;28;20446;-68
2022/01/09 02:06:33;;;;;;;0.60;0.40;;;;;;;;;;5073752;28;20444;-73
2022/01/09 02:09:00;;;;;;;0.60;0.40;;;;;;;;;;5069018;28;21069;-75
2022/01/09 02:11:27;;;;;;;0.60;0.40;;;;;;;;;;5072980;28;20528;-74
2022/01/09 02:13:54;;;;;;;0.70;0.50;;;;;;;;;;5072463;28;20448;-72
2022/01/09 02:16:22;;;;;;;0.60;0.40;;;;;;;;;;5073125;28;20446;-72
2022/01/09 02:18:50;;;;;;;0.60;0.40;;;;;;;;;;5072868;28;20453;-74
2022/01/09 02:21:19;;;;;;;0.70;0.50;;;;;;;;;;5072697;28;20937;-73
2022/01/09 02:23:48;;;;;;;0.60;0.50;;;;;;;;;;5072857;28;20475;-74
2022/01/09 02:26:18;;;;;;;0.60;0.40;;;;;;;;;;5072984;28;20446;-74
2022/01/09 02:28:46;;;;;;;0.60;0.40;;;;;;;;;;5072373;28;20482;-73
2022/01/09 02:31:13;;;;;;;0.60;0.40;;;;;;;;;;5072794;28;20460;-74
2022/01/09 02:33:40;;;;;;;0.60;0.47;;;;;;;;;;5072536;28;21166;-74
2022/01/09 02:36:07;;;;;;;0.60;0.40;;;;;;;;;;5072633;28;20528;-73
2022/01/09 02:38:36;;;;;;;0.60;0.40;;;;;;;;;;5072859;28;20456;-73
2022/01/09 02:41:03;;;;;;;0.57;0.40;;;;;;;;;;5072940;28;20456;-70
2022/01/09 02:43:31;;;;;;;0.50;0.40;;;;;;;;;;5072635;28;20459;-73
2022/01/09 02:46:06;;;;;;;0.80;0.50;;;;;;;;;;5072969;28;20906;-73
2022/01/09 02:48:36;;;;;;;0.80;0.43;;;;;;;;;;5072363;28;20468;-72
2022/01/09 02:51:08;;;;;;;0.57;0.40;;;;;;;;;;5071981;28;20468;-71
2022/01/09 02:53:37;;;;;;;0.60;0.40;;;;;;;;;;5072403;28;20489;-73
2022/01/09 02:56:05;;;;;;;0.60;0.43;;;;;;;;;;5071577;28;20459;-73
2022/01/09 02:58:33;;;;;;;0.60;0.40;;;;;;;;;;5071554;28;20448;-73
2022/01/09 03:01:00;;;;;;;0.60;0.40;;;;;;;;;;5072485;28;20503;-73
2022/01/09 03:03:28;;;;;;;0.80;0.50;;;;;;;;;;5072194;28;20457;-73
2022/01/09 03:05:55;;;;;;;1.10;0.60;;;;;;;;;;5071702;28;20451;-73
2022/01/09 03:08:22;;;;;;;0.97;0.60;;;;;;;;;;5071621;28;21258;-73
2022/01/09 03:10:50;;;;;;;0.87;0.50;;;;;;;;;;5072072;28;20448;-73
2022/01/09 03:13:18;;;;;;;0.70;0.40;;;;;;;;;;5070788;28;20437;-75
2022/01/09 03:15:45;;;;;;;0.80;0.43;;;;;;;;;;5071167;28;20528;-73
2022/01/09 03:18:13;;;;;;;0.60;0.40;;;;;;;;;;5070967;28;20449;-73
2022/01/09 03:20:41;;;;;;;0.70;0.50;;;;;;;;;;5071844;28;20799;-72
2022/01/09 03:23:08;;;;;;;3.57;0.60;;;;;;;;;;5071492;28;20832;-73
2022/01/09 03:25:36;;;;;;;0.70;0.50;;;;;;;;;;5072269;28;20452;-73
2022/01/09 03:28:05;;;;;;;1.00;0.50;;;;;;;;;;5071659;28;20452;-70
2022/01/09 03:30:32;;;;;;;1.53;0.60;;;;;;;;;;5072138;28;20473;-74
2022/01/09 03:32:59;;;;;;;0.87;0.50;;;;;;;;;;5072088;28;20451;-74
2022/01/09 03:35:27;;;;;;;0.60;0.43;;;;;;;;;;5070865;28;20922;-73
2022/01/09 03:37:55;;;;;;;0.80;0.57;;;;;;;;;;5072263;28;20792;-73
2022/01/09 03:40:24;;;;;;;0.80;0.60;;;;;;;;;;5070954;28;20441;-72
2022/01/09 03:42:52;;;;;;;2.00;0.50;;;;;;;;;;5071544;28;20528;-73
2022/01/09 03:45:20;;;;;;;0.70;0.60;;;;;;;;;;5071345;28;20471;-73
2022/01/09 03:47:48;;;;;;;0.60;0.40;;;;;;;;;;5071722;28;20930;-73
2022/01/09 03:50:16;;;;;;;0.97;0.43;;;;;;;;;;5070570;28;20477;-73
2022/01/09 03:52:43;;;;;;;0.90;0.50;;;;;;;;;;5071241;28;20510;-73
2022/01/09 03:55:12;;;;;;;1.43;0.60;;;;;;;;;;5071281;28;20511;-73
2022/01/09 03:57:40;;;;;;;0.60;0.50;;;;;;;;;;5071254;28;20473;-73
2022/01/09 04:00:08;;;;;;;0.60;0.40;;;;;;;;;;5070496;28;20445;-73
2022/01/09 04:02:37;;;;;;;0.60;0.40;;;;;;;;;;5070865;28;20833;-75
2022/01/09 04:05:04;;;;;;;0.70;0.40;;;;;;;;;;5070999;28;20917;-74
2022/01/09 04:07:32;;;;;;;0.80;0.40;;;;;;;;;;5071201;28;20532;-75
2022/01/09 04:09:59;;;;;;;0.70;0.50;;;;;;;;;;5071247;28;20483;-75
2022/01/09 04:12:34;;;;;;;0.63;0.40;;;;;;;;;;5070319;28;20450;-74
2022/01/09 04:15:03;;;;;;;0.70;0.47;;;;;;;;;;5071708;28;20449;-75
2022/01/09 04:17:38;;;;;;;0.67;0.50;;;;;;;;;;5071486;28;20447;-75
2022/01/09 04:20:08;;;;;;;0.80;0.50;;;;;;;;;;5070965;28;20445;-74
2022/01/09 04:22:35;;;;;;;0.67;0.47;;;;;;;;;;5070669;28;20805;-74
2022/01/09 04:25:02;;;;;;;0.60;0.40;;;;;;;;;;5071045;28;20540;-73
2022/01/09 04:27:29;;;;;;;0.60;0.40;;;;;;;;;;5071615;28;20448;-74
2022/01/09 04:29:56;;;;;;;0.60;0.40;;;;;;;;;;5071476;28;20483;-74
2022/01/09 04:32:24;;;;;;;1.00;0.50;;;;;;;;;;5070032;28;20463;-74
2022/01/09 04:34:51;;;;;;;0.80;0.50;;;;;;;;;;5070874;28;20541;-74
2022/01/09 04:37:20;;;;;;;0.70;0.57;;;;;;;;;;5070573;28;20442;-74
2022/01/09 04:39:49;;;;;;;0.80;0.57;;;;;;;;;;5071445;28;20476;-75
2022/01/09 04:42:16;;;;;;;4.00;0.70;;;;;;;;;;5069571;28;20468;-73
2022/01/09 04:44:44;;;;;;;0.70;0.50;;;;;;;;;;5071331;28;20528;-73
2022/01/09 04:47:14;;;;;;;2.30;0.50;;;;;;;;;;5070602;28;20548;-73
2022/01/09 04:49:44;;;;;;;0.57;0.40;;;;;;;;;;5071260;28;21012;-73
2022/01/09 04:52:15;;;;;;;0.60;0.40;;;;;;;;;;5069941;28;20481;-72
2022/01/09 04:54:43;;;;;;;1.33;0.50;;;;;;;;;;5070906;28;20445;-73
2022/01/09 04:57:11;;;;;;;0.60;0.40;;;;;;;;;;5069636;28;20441;-74
2022/01/09 04:59:38;;;;;;;0.80;0.50;;;;;;;;;;5069695;28;20572;-74
2022/01/09 05:02:05;;;;;;;0.60;0.40;;;;;;;;;;5069982;28;20441;-74
2022/01/09 05:04:32;;;;;;;0.60;0.40;;;;;;;;;;5070552;28;20436;-74
2022/01/09 05:07:00;;;;;;;0.77;0.50;;;;;;;;;;5070789;28;20441;-73
2022/01/09 05:09:27;;;;;;;0.80;0.60;;;;;;;;;;5070345;28;20506;-73
2022/01/09 05:11:55;;;;;;;0.80;0.43;;;;;;;;;;5070686;28;20928;-72
2022/01/09 05:14:22;;;;;;;0.60;0.40;;;;;;;;;;5069860;28;21458;-72
2022/01/09 05:16:50;;;;;;;2.10;0.40;;;;;;;;;;5070565;28;20528;-73
2022/01/09 05:19:20;;;;;;;0.80;0.50;;;;;;;;;;5070000;28;20451;-73
2022/01/09 05:21:48;;;;;;;0.60;0.40;;;;;;;;;;5070964;28;20868;-72
2022/01/09 05:24:15;;;;;;;0.60;0.40;;;;;;;;;;5069423;28;20933;-72
2022/01/09 05:26:42;;;;;;;0.60;0.50;;;;;;;;;;5070800;28;20451;-70
2022/01/09 05:29:11;;;;;;;0.70;0.40;;;;;;;;;;5069609;28;20447;-72
2022/01/09 05:31:38;;;;;;;1.67;0.50;;;;;;;;;;5070717;28;20796;-72
2022/01/09 05:34:05;;;;;;;0.63;0.40;;;;;;;;;;5069425;28;20451;-71
2022/01/09 05:36:32;;;;;;;0.60;0.40;;;;;;;;;;5069821;28;20442;-70
2022/01/09 05:39:00;;;;;;;0.60;0.40;;;;;;;;;;5070523;28;20790;-71
2022/01/09 05:41:27;;;;;;;1.10;0.70;;;;;;;;;;5073375;28;20443;-71
2022/01/09 05:43:54;;;;;;;0.60;0.40;;;;;;;;;;5073213;28;20461;-71
2022/01/09 05:46:22;;;;;;;0.60;0.40;;;;;;;;;;5073941;28;20438;-71
2022/01/09 05:48:49;;;;;;;0.60;0.40;;;;;;;;;;5074030;28;20447;-71
2022/01/09 05:51:17;;;;;;;0.87;0.47;;;;;;;;;;5073127;28;20489;-71
2022/01/09 05:53:44;;;;;;;1.10;0.40;;;;;;;;;;5073856;28;20497;-71
2022/01/09 05:56:11;;;;;;;0.60;0.50;;;;;;;;;;5073101;28;20446;-71
2022/01/09 05:58:39;;;;;;;0.80;0.50;;;;;;;;;;5073149;28;20451;-71
2022/01/09 06:01:08;;;;;;;1.20;0.50;;;;;;;;;;5072835;28;20445;-71
2022/01/09 06:03:36;;;;;;;0.90;0.60;;;;;;;;;;5073280;28;20453;-71
2022/01/09 06:06:04;;;;;;;0.87;0.47;;;;;;;;;;5072725;28;20436;-70
2022/01/09 06:08:31;;;;;;;1.13;0.50;;;;;;;;;;5073676;28;20445;-71
2022/01/09 06:10:58;;;;;;;1.40;0.50;;;;;;;;;;5073474;28;20477;-71
2022/01/09 06:13:25;;;;;;;0.60;0.40;;;;;;;;;;5072749;28;20448;-71
2022/01/09 06:15:52;;;;;;;1.00;0.60;;;;;;;;;;5073276;28;20925;-70
2022/01/09 06:18:20;;;;;;;0.60;0.50;;;;;;;;;;5073297;28;20448;-71
2022/01/09 06:20:49;;;;;;;1.43;0.60;;;;;;;;;;5084882;28;20453;-71
2022/01/09 06:23:19;;;;;;;2.50;0.50;;;;;;;;;;5072847;28;20444;-71
2022/01/09 06:25:47;;;;;;;0.67;0.40;;;;;;;;;;5073691;28;20455;-71
2022/01/09 06:28:14;;;;;;;0.70;0.40;;;;;;;;;;5072802;28;20442;-70
2022/01/09 06:30:42;;;;;;;1.60;0.63;;;;;;;;;;5073100;28;20473;-71
2022/01/09 06:33:09;;;;;;;0.90;0.60;;;;;;;;;;5071997;28;20449;-70
2022/01/09 06:35:36;;;;;;;1.40;0.80;;;;;;;;;;5073223;28;20450;-69
2022/01/09 06:38:05;;;;;;;1.63;0.60;;;;;;;;;;5072198;28;20445;-67
2022/01/09 06:40:32;;;;;;;0.83;0.50;;;;;;;;;;5072860;28;20441;-70
2022/01/09 06:43:00;;;;;;;1.37;0.50;;;;;;;;;;5072745;28;20451;-70
2022/01/09 06:45:27;;;;;;;1.00;0.60;;;;;;;;;;5071944;28;20458;-72
2022/01/09 06:47:54;;;;;;;0.90;0.60;;;;;;;;;;5072901;28;20526;-70
2022/01/09 06:50:23;;;;;;;0.80;0.60;;;;;;;;;;5072247;28;20477;-70
2022/01/09 06:52:50;;;;;;;1.03;0.60;;;;;;;;;;5071712;28;20800;-70
2022/01/09 06:55:19;;;;;;;0.70;0.50;;;;;;;;;;5070734;28;20905;-70
2022/01/09 06:57:46;;;;;;;1.00;0.83;;;;;;;;;;5072576;28;20447;-72
2022/01/09 07:00:15;;;;;;;0.70;0.50;;;;;;;;;;5072379;28;20449;-70
2022/01/09 07:02:42;;;;;;;0.80;0.50;;;;;;;;;;5069966;28;20553;-71
2022/01/09 07:05:10;;;;;;;0.60;0.40;;;;;;;;;;5072049;28;20850;-70
2022/01/09 07:07:37;;;;;;;1.17;0.50;;;;;;;;;;5072059;28;20788;-69
2022/01/09 07:10:04;;;;;;;0.70;0.50;;;;;;;;;;5071203;28;20481;-69
2022/01/09 07:12:33;;;;;;;1.17;0.70;;;;;;;;;;5072194;28;20438;-69
2022/01/09 07:15:00;;;;;;;0.70;0.57;;;;;;;;;;5072666;28;20438;-72
2022/01/09 07:17:27;;;;;;;1.23;0.50;;;;;;;;;;5071671;28;20528;-69
2022/01/09 07:19:54;;;;;;;0.70;0.50;;;;;;;;;;5072263;28;20524;-69
2022/01/09 07:22:22;;;;;;;0.97;0.60;;;;;;;;;;5070799;28;20540;-72
2022/01/09 07:24:49;;;;;;;0.80;0.50;;;;;;;;;;5072168;28;20443;-68
2022/01/09 07:27:16;;;;;;;0.60;0.50;;;;;;;;;;5071336;28;20446;-69
2022/01/09 07:29:44;;;;;;;0.80;0.60;;;;;;;;;;5072099;28;20532;-69
2022/01/09 07:32:12;;;;;;;0.83;0.73;;;;;;;;;;5071058;28;20441;-69
2022/01/09 07:34:39;;;;;;;1.73;0.70;;;;;;;;;;5072055;28;20484;-69
2022/01/09 07:37:06;;;;;;;2.10;0.60;;;;;;;;;;5071252;28;20437;-68
2022/01/09 07:39:33;;;;;;;2.10;0.93;;;;;;;;;;5071454;28;20452;-69
2022/01/09 07:42:01;;;;;;;2.53;1.10;;;;;;;;;;5071663;28;20834;-69
2022/01/09 07:44:28;;;;;;;2.37;0.90;;;;;;;;;;5072052;28;20445;-69
2022/01/09 07:46:57;;;;;;;1.30;1.10;;;;;;;;;;5071473;28;20499;-69
2022/01/09 07:49:24;;;;;;;2.30;1.17;;;;;;;;;;5071209;28;20460;-72
2022/01/09 07:51:51;;;;;;;8.67;1.00;;;;;;;;;;5071444;28;20491;-69
2022/01/09 07:54:19;;;;;;;4.87;1.63;;;;;;;;;;5070550;28;20520;-68
2022/01/09 07:56:46;;;;;;;2.40;1.17;;;;;;;;;;5071247;28;20445;-70
2022/01/09 07:59:13;;;;;;;0.93;0.70;;;;;;;;;;5071177;28;20446;-70
2022/01/09 08:01:40;;;;;;;2.33;1.30;;;;;;;;;;5071442;28;20791;-69
2022/01/09 08:04:09;;;;;;;10.53;1.70;;;;;;;;;;5069880;28;20996;-72
2022/01/09 08:06:36;;;;;;;2.20;1.27;;;;;;;;;;5058577;28;20541;-70
2022/01/09 08:09:03;;;;;;;1.80;1.30;;;;;;;;;;5070881;28;20552;-67
2022/01/09 08:11:30;;;;;;;3.20;1.30;;;;;;;;;;5071472;28;20564;-70
2022/01/09 08:13:58;;;;;;;4.10;0.97;;;;;;;;;;5070989;28;20802;-70
2022/01/09 08:16:25;;;;;;;3.13;1.13;;;;;;;;;;5071083;28;20447;-70
2022/01/09 08:18:52;;;;;;;2.10;0.90;;;;;;;;;;5071033;28;20530;-69
2022/01/09 08:21:21;;;;;;;2.97;0.80;;;;;;;;;;5070954;28;20876;-70
2022/01/09 08:23:48;;;;;;;2.70;0.77;;;;;;;;;;5069814;28;20450;-70
2022/01/09 08:26:15;;;;;;;5.40;1.47;;;;;;;;;;5076951;28;20437;-70
2022/01/09 08:28:45;;;;;;;3.73;1.90;;;;;;;;;;5075270;28;20862;-70
2022/01/09 08:31:12;;;;;;;6.37;1.27;;;;;;;;;;5067189;28;20531;-70
2022/01/09 08:33:39;;;;;;;4.37;1.27;;;;;;;;;;5070617;28;20539;-70
2022/01/09 08:36:07;;;;;;;6.30;1.27;;;;;;;;;;5070602;28;20444;-68
2022/01/09 08:38:35;;;;;;;3.50;1.40;;;;;;;;;;5071014;28;20458;-69
2022/01/09 08:41:03;;;;;;;2.27;0.87;;;;;;;;;;5071502;28;20490;-70
2022/01/09 08:43:31;;;;;;;4.60;1.90;;;;;;;;;;5070545;28;20527;-71
2022/01/09 08:45:58;;;;;;;4.47;1.13;;;;;;;;;;5070496;28;20529;-71
2022/01/09 08:48:25;;;;;;;1.13;0.80;;;;;;;;;;5068179;28;20447;-71
2022/01/09 08:50:52;;;;;;;2.80;1.40;;;;;;;;;;5070540;28;20489;-69
2022/01/09 08:53:20;;;;;;;2.73;1.07;;;;;;;;;;5069428;28;20478;-70
2022/01/09 08:55:48;;;;;;;5.30;0.90;;;;;;;;;;5070435;28;20524;-71
2022/01/09 08:58:16;;;;;;;4.13;1.63;;;;;;;;;;5070211;28;20528;-70
2022/01/09 09:00:43;;;;;;;2.17;1.73;;;;;;;;;;5070608;28;20485;-71
2022/01/09 09:03:10;;;;;;;3.20;1.67;;;;;;;;;;5069747;28;20442;-70
2022/01/09 09:05:38;;;;;;;4.70;1.10;;;;;;;;;;5071030;28;20442;-70
2022/01/09 09:08:05;;;;;;;4.93;1.20;;;;;;;;;;5070402;28;20448;-71
2022/01/09 09:10:32;;;;;;;4.27;1.83;;;;;;;;;;5071309;28;20966;-72
2022/01/09 09:13:01;;;;;;;2.50;1.20;;;;;;;;;;5070129;28;20796;-71
2022/01/09 09:15:28;;;;;;;1.60;1.00;;;;;;;;;;5072916;28;20460;-72
2022/01/09 09:17:56;;;;;;;5.43;1.17;;;;;;;;;;5062912;28;20900;-72
2022/01/09 09:20:23;;;;;;;3.23;1.43;;;;;;;;;;5074016;28;20968;-70
2022/01/09 09:22:50;;;;;;;3.53;1.20;;;;;;;;;;5074381;28;20434;-70
2022/01/09 09:25:18;;;;;;;4.77;1.07;;;;;;;;;;5074142;28;20452;-70
2022/01/09 09:27:45;;;;;;;5.97;1.43;;;;;;;;;;5074291;28;20483;-75
2022/01/09 09:30:15;;;;;;;2.70;1.10;;;;;;;;;;5075240;28;20449;-71
2022/01/09 09:32:43;;;;;;;4.17;1.73;;;;;;;;;;5081910;28;20456;-69
2022/01/09 09:35:10;;;;;;;2.50;0.90;;;;;;;;;;5094007;28;20520;-70
2022/01/09 09:37:38;;;;;;;1.57;1.30;;;;;;;;;;5097351;28;20484;-71
2022/01/09 09:40:06;;;;;;;2.87;1.00;;;5.40;69.40;;;;;;5080225;28;20532;-71
2022/01/09 09:42:33;;;;;;;3.17;1.00;;;5.60;90.50;;;;;;5076422;28;20456;-68
2022/01/09 09:45:02;;;;;;;4.20;2.23;;;5.60;1.00;;;;;;5074909;28;20939;-74
2022/01/09 09:47:30;;;;;;;5.03;1.63;;;5.60;91.60;;;;;;5074981;28;20471;-72
2022/01/09 09:49:57;;;;;;;6.67;1.50;;;5.40;1.00;;;;;;5074577;28;20440;-75
2022/01/09 09:52:25;;;;;;;7.53;1.47;;;5.00;91.50;;;;;;5072934;28;20492;-69
2022/01/09 09:54:53;;;;;;;4.13;1.67;;;5.00;99.90;;;;;;5074387;28;20437;-69
2022/01/09 09:57:21;;;;;;;3.33;1.30;;;4.90;1.00;;;;;;5073742;28;20529;-71
2022/01/09 09:59:48;;;;;;;6.50;2.70;;;5.00;1.00;;;;;;5074101;28;20784;-71
2022/01/09 10:02:17;;;;;;;5.77;1.67;;;4.90;99.90;;;;;;5073447;28;20679;-72
2022/01/09 10:05:01;;;;;;;3.90;1.93;;;5.00;99.90;;;;;;5074270;28;20519;-72
2022/01/09 10:07:29;;;;;;;3.50;1.40;;;5.10;99.90;;;;;;5073219;28;20436;-69
2022/01/09 10:09:58;;;;;;;2.20;1.13;;;;;;;;;;5073829;28;20447;-71
2022/01/09 10:12:26;;;;;;;6.40;1.57;;;;;;;;;;5072951;28;20563;-70
2022/01/09 10:14:54;;;;;;;4.37;2.00;;;;;;;;;;5068295;28;21118;-68
2022/01/09 10:17:21;;;;;;;10.97;1.77;;;;;;;;;;5070180;28;20451;-68
2022/01/09 10:19:50;;;;;;;4.30;1.70;;;;;;;;;;5071288;28;20437;-68
2022/01/09 10:22:33;;;;;;;4.60;1.10;;;;;;;;;;5070256;28;20460;-68
2022/01/09 10:25:16;;;;;;;7.20;1.00;;;;;;;;;;5071563;28;20438;-68
2022/01/09 10:27:44;;;;;;;4.80;1.57;;;;;;;;;;5070793;28;20433;-68
2022/01/09 10:30:11;;;;;;;3.63;1.50;;;;;;;;;;5070552;28;20445;-69
2022/01/09 10:32:39;;;;;;;2.70;1.47;;;;;;;;;;5069066;28;20843;-69
2022/01/09 10:35:07;;;;;;;4.27;1.43;;;;;;;;;;5069995;28;20478;-69
2022/01/09 10:37:36;;;;;;;8.50;1.30;;;;;;;;;;5070315;28;20537;-69
2022/01/09 10:40:05;;;;;;;3.43;1.70;;;;;;;;;;5070402;28;20449;-64
2022/01/09 10:42:32;;;;;;;6.10;1.30;;;;;;;;;;5070785;28;20448;-70
2022/01/09 10:45:14;;;;;;;6.00;1.50;;;;;;;;;;5070153;28;20521;-68
2022/01/09 10:47:41;;;;;;;3.43;1.43;;;;;;;;;;5068785;28;20440;-68
2022/01/09 10:50:10;;;;;;;7.83;1.87;;;;;;;;;;5069789;28;20535;-68
2022/01/09 10:52:41;;;;;;;4.73;1.50;;;;;;;;;;5069971;28;20500;-71
2022/01/09 10:55:10;;;;;;;2.40;1.27;;;;;;;;;;5070077;28;20445;-71
2022/01/09 10:57:39;;;;;;;3.70;1.10;;;;;;;;;;5069531;28;20453;-71
2022/01/09 11:00:08;;;;;;;4.30;1.50;;;;;;;;;;5067717;28;20453;-68
2022/01/09 11:02:35;;;;;;;5.60;1.50;;;;;;;;;;5070084;28;20501;-69
2022/01/09 11:05:03;;;;;;;2.67;1.30;;;;;;;;;;5070062;28;20438;-64
2022/01/09 11:07:31;;;;;;;5.10;2.30;;;;;;;;;;5069654;28;20446;-68
2022/01/09 11:10:00;;;;;;;5.30;1.50;;;;;;;;;;5070237;28;20804;-71
2022/01/09 11:12:33;;;;;;;2.37;1.00;;;;;;;;;;5068396;28;20485;-68
2022/01/09 11:15:02;;;;;;;2.30;1.00;;;;;;;;;;5070163;28;20450;-71
2022/01/09 11:17:30;;;;;;;2.20;1.50;;;;;;;;;;5069557;28;20452;-68
2022/01/09 11:19:57;;;;;;;2.20;1.10;;;;;;;;;;5070168;28;20445;-69
2022/01/09 11:22:25;;;;;;;4.00;1.20;;;;;;;;;;5069250;28;20453;-69
2022/01/09 11:24:58;;;;;;;4.43;1.40;;;;;;;;;;5069702;28;20441;-69
2022/01/09 11:27:34;;;;;;;4.37;1.50;;;;;;;;;;5068703;28;20528;-69
2022/01/09 11:30:05;;;;;;;6.77;1.57;;;;;;;;;;5069575;28;20529;-69
2022/01/09 11:32:37;;;;;;;1.83;0.80;;;;;;;;;;5063825;28;20483;-69
2022/01/09 11:35:11;;;;;;;2.73;1.07;;;;;;;;;;5069130;28;20519;-70
2022/01/09 11:37:45;;;;;;;4.50;1.60;;;;;;;;;;5068670;28;20525;-69
2022/01/09 11:40:25;;;;;;;2.83;1.30;;;;;;;;;;5068744;28;20449;-69
2022/01/09 11:43:04;;;;;;;3.23;1.30;;;;;;;;;;5069457;28;20467;-68
2022/01/09 11:45:45;;;;;;;3.03;1.20;;;;;;;;;;5069294;28;20449;-69
2022/01/09 11:48:13;;;;;;;3.83;1.63;;;;;;;;;;5063921;28;20440;-72
2022/01/09 11:50:55;;;;;;;5.80;1.23;;;;;;;;;;5069420;28;20442;-69
2022/01/09 11:53:22;;;;;;;1.53;1.03;;;;;;;;;;5068093;28;20596;-73
2022/01/09 11:55:50;;;;;;;2.40;1.20;;;;;;;;;;5068665;28;20441;-68
2022/01/09 11:58:20;;;;;;;5.80;1.10;;;;;;;;;;5068905;28;20437;-71
2022/01/09 12:00:49;;;;;;;2.90;1.33;;;;;;;;;;5069389;28;20437;-70
2022/01/09 12:03:37;;;;;;;2.60;1.20;;;;;;;;;;5068437;28;20445;-71
2022/01/09 12:06:05;;;;;;;2.30;1.17;;;;;;;;;;5068496;28;20445;-71
2022/01/09 12:08:51;;;;;;;4.27;1.03;;;;;;;;;;5069176;28;20461;-71
2022/01/09 12:11:18;;;;;;;1.77;0.80;;;;;;;;;;5067249;28;20456;-73
2022/01/09 12:13:47;;;;;;;1.90;1.10;;;;;;;;;;5069376;28;20485;-76
2022/01/09 12:16:33;;;;;;;5.40;2.23;;;;;;;;;;5068712;28;20449;-73
2022/01/09 12:19:00;;;;;;;4.20;1.30;;;;;;;;;;5070038;28;20946;-69
2022/01/09 12:21:42;;;;;;;5.73;1.90;;;;;;;;;;5079842;28;20488;-69
2022/01/09 12:24:28;;;;;;;3.00;0.97;;;;;;;;;;5081225;28;20477;-70
2022/01/09 12:26:56;;;;;;;4.93;1.77;;;;;;;;;;5068521;28;20471;-69
2022/01/09 12:29:38;;;;;;;2.13;0.90;;;;;;;;;;5068365;28;20769;-69
2022/01/09 12:32:31;;;;;;;2.20;1.10;;;;;;;;;;5065810;28;20693;-69
2022/01/09 12:35:14;;;;;;;5.63;1.43;;;;;;;;;;5071391;28;20436;-70
2022/01/09 12:37:45;;;;;;;9.00;1.43;;;;;;;;;;5067480;28;20449;-67
2022/01/09 12:40:12;;;;;;;2.10;0.90;;;;;;;;;;5067796;28;20459;-69
2022/01/09 12:42:45;;;;;;;4.77;2.30;;;;;;;;;;5068797;28;20457;-70
2022/01/09 12:45:13;;;;;;;4.43;1.03;;;;;;;;;;5068031;28;20507;-70
2022/01/09 12:47:42;;;;;;;8.17;3.17;;;;;;;;;;5067988;28;20456;-69
2022/01/09 12:50:09;;;;;;;3.47;1.00;;;;;;;;;;5068063;28;20779;-69
2022/01/09 12:52:36;;;;;;;4.43;1.80;;;;;;;;;;5064509;28;20497;-69
2022/01/09 12:55:07;;;;;;;1.90;1.23;;;;;;;;;;5071923;28;20453;-66
2022/01/09 12:57:49;;;;;;;3.13;1.03;;;;;;;;;;5072127;28;20536;-69
2022/01/09 13:00:16;;;;;;;3.80;0.87;;;;;;;;;;5060512;28;20464;-68
2022/01/09 13:02:53;;;;;;;1.90;1.40;;;;;;;;;;5065203;28;20442;-69
2022/01/09 13:05:22;;;;;;;5.60;2.27;;;;;;;;;;5060966;28;20436;-67
2022/01/09 13:07:55;;;;;;;4.37;0.77;;;;;;;;;;5072090;28;20445;-67
2022/01/09 13:10:28;;;;;;;3.13;1.00;;;;;;;;;;5071792;28;20720;-66
2022/01/09 13:13:02;;;;;;;3.07;1.03;;;;;;;;;;5071888;28;20483;-67
2022/01/09 13:15:33;;;;;;;7.50;1.70;;;;;;;;;;5069542;28;20528;-67
2022/01/09 13:18:02;;;;;;;4.40;1.33;;;;;;;;;;5062043;28;20437;-69
2022/01/09 13:20:29;;;;;;;0.90;0.70;;;;;;;;;;5071628;28;20453;-67
2022/01/09 13:23:03;;;;;;;1.70;1.10;;;;;;;;;;5071836;28;20461;-68
2022/01/09 13:25:30;;;;;;;5.40;1.07;;;;;;;;;;5071538;28;20455;-68
2022/01/09 13:27:58;;;;;;;1.50;1.03;;;;;;;;;;5071242;28;20463;-68
2022/01/09 13:30:26;;;;;;;1.20;0.87;;;;;;;;;;5071597;28;20531;-67
2022/01/09 13:32:53;;;;;;;1.20;0.83;;;;;;;;;;5070116;28;20492;-68
2022/01/09 13:35:26;;;;;;;3.33;1.13;;;;;;;;;;5071289;28;20524;-68
2022/01/09 13:37:57;;;;;;;4.33;1.03;;;;;;;;;;5071019;28;20801;-68
2022/01/09 13:40:24;;;;;;;2.83;1.00;;;;;;;;;;5070607;28;20446;-68
2022/01/09 13:42:52;;;;;;;2.70;0.90;;;;;;;;;;5071446;28;20953;-68
2022/01/09 13:45:21;;;;;;;1.60;0.73;;;;;;;;;;5070982;28;20448;-68
2022/01/09 13:47:50;;;;;;;2.37;1.03;;;;;;;;;;5071044;28;20467;-70
2022/01/09 13:50:18;;;;;;;3.07;1.30;;;;;;;;;;5070291;28;20989;-68
2022/01/09 13:52:46;;;;;;;1.87;1.07;;;;;;;;;;5070093;28;20530;-68
2022/01/09 13:55:14;;;;;;;6.40;1.13;;;;;;;;;;5070787;28;20467;-68
2022/01/09 13:57:48;;;;;;;4.30;1.20;;;;;;;;;;5070673;28;20531;-68
2022/01/09 14:00:15;;;;;;;3.60;1.20;;;;;;;;;;5069421;28;20450;-68
2022/01/09 14:02:45;;;;;;;2.67;1.07;;;;;;;;;;5064866;28;20549;-68
2022/01/09 14:05:13;;;;;;;1.83;1.50;;;;;;;;;;5070515;28;20446;-68
2022/01/09 14:07:40;;;;;;;3.33;2.27;;;;;;;;;;5070324;28;20445;-67
2022/01/09 14:10:09;;;;;;;2.20;0.70;;;;;;;;;;5068845;28;20445;-67
2022/01/09 14:12:37;;;;;;;2.30;1.13;;;;;;;;;;5070451;28;20504;-67
2022/01/09 14:15:12;;;;;;;3.23;1.07;;;;;;;;;;5070179;28;20441;-70
2022/01/09 14:17:44;;;;;;;2.10;1.20;;;;;;;;;;5070770;28;20459;-69
2022/01/09 14:20:16;;;;;;;6.97;1.67;;;;;;;;;;5069608;28;20520;-69
2022/01/09 14:22:47;;;;;;;8.93;2.13;;;;;;;;;;5070369;28;20542;-69
2022/01/09 14:25:16;;;;;;;3.13;1.27;;;;;;;;;;5069672;28;20444;-69
2022/01/09 14:27:45;;;;;;;4.40;1.23;;;;;;;;;;5070328;28;20445;-69
2022/01/09 14:30:22;;;;;;;3.83;1.03;;;;;;;;;;5070260;28;20898;-69
2022/01/09 14:32:51;;;;;;;1.90;1.27;;;;;;;;;;5065058;28;20476;-69
2022/01/09 14:35:28;;;;;;;4.97;1.20;;;;;;;;;;5069950;28;20545;-70
2022/01/09 14:37:59;;;;;;;8.73;3.70;;;;;;;;;;5070563;28;20463;-70
2022/01/09 14:40:28;;;;;;;2.80;1.70;;;;;;;;;;5070026;28;20809;-70
2022/01/09 14:42:55;;;;;;;3.37;1.40;;;;;;;;;;5069524;28;20536;-67